02:09 Langlaufen Seefeld Skating
Ort Seefeld Datum 05.01.2015 17:45:26
Kategorie Langlaufen
Distanz 31,86 Kilometer Steigung 219,0 Meter Gefälle -190,0 Meter
Gesamt Zeit 02:08:50 Aktiv 02:08:50 Pause 00:00:00
Durchs. Tempo 00:04:02 min/km Tempo max. 00:02:36 min/km Tempo min. 00:07:03 min/km
Kalorien 0 Durchs. HF 116 BPM HF max. 140 BPM
Wetter -5 °C Clear Min/Max: -6,0 °C/-3,6 °C; Druck: 1033,7 mbar; Rel. Feuchte: 86,4%; Taupunkt: -6,3 °C; Windgeschwindigkeit: 2,2 km/h; Niederschlag: 0,0mm
Ausrüstung Salomon - Equipe 10 SK
Salomon - RS Carbon
Notiz Seefeld Skating ... 13x verkürzte Nachtloipe (wg. Weltcup), sehr glatt, tw. eisig, einiges mit Doppelstock ... garmin connect
Splits
Distanz (km) Gesamt Zeit Split Zeit Split Tempo Split Tempo Höhenprofil (m)
1,00 00:03:53 00:03:53 00:03:53 15,4 0,56
2,00 00:07:58 00:04:05 00:04:06 14,7 5,85
3,00 00:11:57 00:03:59 00:03:59 15,1 -6,41
4,00 00:16:18 00:04:20 00:04:20 13,8 8,48
5,00 00:20:23 00:04:05 00:04:05 14,7 -8,45
6,00 00:24:13 00:03:50 00:03:50 15,6 1,33
7,00 00:28:20 00:04:06 00:04:07 14,6 4,11
8,00 00:32:14 00:03:54 00:03:54 15,4 -5,46
9,00 00:36:25 00:04:10 00:04:11 14,4 9,35
10,00 00:40:12 00:03:47 00:03:47 15,8 -9,35
11,00 00:44:18 00:04:06 00:04:06 14,6 3,71
12,00 00:48:20 00:04:01 00:04:01 14,9 0,69
13,00 00:52:06 00:03:45 00:03:46 16,0 -4,41
14,00 00:56:23 00:04:17 00:04:18 14,0 9,67
15,00 01:00:10 00:03:47 00:03:47 15,9 -9,66
16,00 01:04:23 00:04:13 00:04:13 14,2 4,62
17,00 01:08:30 00:04:07 00:04:07 14,6 -1,53
18,00 01:12:15 00:03:45 00:03:45 16,0 -3,11
19,00 01:16:28 00:04:12 00:04:13 14,3 9,31
20,00 01:20:12 00:03:43 00:03:44 16,1 -9,30
21,00 01:24:25 00:04:13 00:04:13 14,2 5,47
22,00 01:28:41 00:04:15 00:04:15 14,1 -3,76
23,00 01:32:21 00:03:40 00:03:41 16,3 -1,69
24,00 01:36:37 00:04:15 00:04:15 14,1 8,11
25,00 01:40:45 00:04:08 00:04:09 14,5 -8,13
26,00 01:44:49 00:04:04 00:04:04 14,7 6,90
27,00 01:48:57 00:04:07 00:04:07 14,6 -6,20
28,00 01:52:49 00:03:52 00:03:53 15,5 -0,50
29,00 01:56:56 00:04:06 00:04:07 14,6 6,64
30,00 02:00:46 00:03:49 00:03:49 15,7 -6,83
31,00 02:04:58 00:04:12 00:04:12 14,3 8,17
31,96 02:08:50 00:03:51 00:04:02 14,9 -7,75